Time;durP1;ratioP1;P1;durP2;ratioP2;P2;SDS_P1;SDS_P2;PMS_P1;PMS_P2;Temp;Humidity;BMP_temperature;BMP_pressure;BME280_temperature;BME280_humidity;BME280_pressure;Samples;Min_cycle;Max_cycle;Signal;HPM_P1;HPM_P2
2022/11/06 00:00:45;;;;;;;18.88;12.60;;;;;;;11.85;64.03;101278.28;4860881;29;20204;-78
2022/11/06 00:03:12;;;;;;;20.58;13.23;;;;;;;11.48;65.15;101221.00;4861052;29;20064;-78
2022/11/06 00:08:44;;;;;;;20.63;12.70;;;;;;;11.51;65.17;101233.22;4861893;29;20152;-78
2022/11/06 00:11:15;;;;;;;18.02;12.85;;;;;;;11.52;65.00;101230.41;4862031;29;20384;-78
2022/11/06 00:13:46;;;;;;;20.77;12.15;;;;;;;11.86;64.39;101293.25;4860784;29;20052;-78
2022/11/06 00:16:13;;;;;;;19.75;11.85;;;;;;;11.48;63.56;101241.41;4861434;29;20473;-80
2022/11/06 00:18:42;;;;;;;17.83;11.85;;;;;;;11.80;63.66;101297.28;4864943;29;20056;-79
2022/11/06 00:21:11;;;;;;;19.75;12.55;;;;;;;11.86;63.67;101293.25;4862767;29;20460;-80
2022/11/06 00:23:38;;;;;;;20.05;12.52;;;;;;;11.68;63.63;101251.25;4867940;29;20052;-79
2022/11/06 00:26:20;;;;;;;22.27;12.05;;;;;;;11.81;64.32;101279.50;4863744;29;20246;-79
2022/11/06 00:28:47;;;;;;;17.13;11.82;;;;;;;11.62;64.12;101251.75;4861600;29;20060;-78
2022/11/06 00:31:18;;;;;;;19.45;12.70;;;;;;;11.67;63.90;101268.19;4862092;29;20163;-79
2022/11/06 00:33:50;;;;;;;21.77;12.68;;;;;;;11.74;63.99;101295.94;4863526;29;20053;-79
2022/11/06 00:36:23;;;;;;;19.98;12.85;;;;;;;11.70;64.16;101289.22;4865580;29;20052;-78
2022/11/06 00:38:52;;;;;;;19.05;11.38;;;;;;;11.69;64.31;101302.63;4869999;29;20064;-79
2022/11/06 00:41:20;;;;;;;19.48;13.18;;;;;;;11.63;64.20;101296.00;4865018;29;20048;-78
2022/11/06 00:43:48;;;;;;;20.33;12.68;;;;;;;11.49;63.87;101281.19;4860377;29;20052;-77
2022/11/06 00:46:18;;;;;;;17.60;12.32;;;;;;;11.64;64.21;101299.50;4860119;29;20048;-77
2022/11/06 00:48:45;;;;;;;16.23;11.55;;;;;;;11.79;64.25;101300.06;4862130;29;20091;-77
2022/11/06 00:51:39;;;;;;;19.77;11.52;;;;;;;11.78;62.72;101269.97;4859691;29;20056;-77
2022/11/06 00:54:10;;;;;;;24.08;13.10;;;;;;;11.94;63.65;101290.81;4862142;29;20994;-77
2022/11/06 00:56:37;;;;;;;26.30;13.05;;;;;;;11.33;64.43;101207.19;4860174;29;20341;-79
2022/11/06 00:59:07;;;;;;;19.33;12.95;;;;;;;11.80;64.21;101291.13;4859701;29;20053;-77
2022/11/06 01:01:39;;;;;;;21.95;12.63;;;;;;;11.76;64.32;101294.00;4857302;29;20167;-78
2022/11/06 01:04:15;;;;;;;19.98;12.68;;;;;;;11.78;64.27;101301.88;4861735;29;20048;-79
2022/11/06 01:06:47;;;;;;;22.85;12.07;;;;;;;11.46;63.39;101269.97;4862413;29;20060;-79
2022/11/06 01:09:16;;;;;;;18.63;10.38;;;;;;;11.61;63.37;101299.78;4860171;29;20658;-80
2022/11/06 01:11:45;;;;;;;21.02;12.43;;;;;;;11.62;63.04;101302.28;4858560;29;20163;-79
2022/11/06 01:14:32;;;;;;;22.15;12.95;;;;;;;11.64;63.63;101308.31;4859884;29;20068;-81
2022/11/06 01:16:59;;;;;;;18.58;12.18;;;;;;;11.58;63.85;101306.19;4858974;29;20689;-79
2022/11/06 01:19:26;;;;;;;18.85;11.63;;;;;;;11.56;64.10;101308.13;4859674;29;20195;-80
2022/11/06 01:21:53;;;;;;;22.10;12.10;;;;;;;11.40;64.22;101273.97;4857928;29;20167;-81
2022/11/06 01:24:28;;;;;;;16.02;11.23;;;;;;;11.37;63.83;101270.72;4861875;29;20366;-79
2022/11/06 01:26:58;;;;;;;15.80;10.40;;;;;;;11.52;63.07;101309.34;4862388;29;20084;-79
2022/11/06 01:29:48;;;;;;;18.83;10.82;;;;;;;11.43;63.62;101308.28;4859607;29;20095;-79
2022/11/06 01:32:16;;;;;;;15.07;10.13;;;;;;;11.43;62.70;101312.75;4858107;29;20270;-78
2022/11/06 01:34:45;;;;;;;17.48;9.18;;;;;;;11.42;63.28;101316.38;4856178;29;20760;-79
2022/11/06 01:37:12;;;;;;;15.27;9.27;;;;;;;11.44;62.78;101311.78;4859295;29;20232;-80
2022/11/06 01:39:41;;;;;;;17.48;9.30;;;;;;;11.09;62.27;101268.50;4854449;29;20060;-80
2022/11/06 01:42:13;;;;;;;16.42;10.23;;;;;;;11.39;62.53;101316.63;4857890;29;20539;-79
2022/11/06 01:44:43;;;;;;;14.63;9.63;;;;;;;11.02;62.34;101255.78;4856010;29;20056;-80
2022/11/06 01:47:23;;;;;;;16.15;9.35;;;;;;;11.42;62.80;101327.00;4861543;29;20072;-80
2022/11/06 01:50:00;;;;;;;15.10;9.15;;;;;;;11.47;63.16;101330.16;4860128;29;20053;-79
2022/11/06 01:52:32;;;;;;;19.45;10.60;;;;;;;11.38;62.24;101293.66;4858243;29;20195;-79
2022/11/06 01:55:13;;;;;;;16.13;9.75;;;;;;;11.63;61.75;101319.94;4857830;29;20056;-80
2022/11/06 01:57:42;;;;;;;21.63;9.45;;;;;;;11.42;62.65;101295.09;4862713;29;20064;-78
2022/11/06 02:00:13;;;;;;;15.13;9.25;;;;;;;11.08;63.71;101247.34;4859290;29;20052;-79
2022/11/06 02:02:47;;;;;;;18.08;10.23;;;;;;;10.79;63.14;101223.97;4860562;29;20052;-78
2022/11/06 02:05:15;;;;;;;18.75;10.82;;;;;;;11.31;63.23;101314.56;4857587;29;20499;-79
2022/11/06 02:07:42;;;;;;;17.70;9.80;;;;;;;11.15;63.63;101307.00;4868579;29;20072;-80
2022/11/06 02:10:09;;;;;;;17.95;9.48;;;;;;;10.97;63.53;101279.22;4855412;29;20052;-79
2022/11/06 02:12:46;;;;;;;15.18;9.73;;;;;;;11.20;63.33;101317.25;4862892;29;20808;-80
2022/11/06 02:15:20;;;;;;;18.88;10.68;;;;;;;11.21;63.34;101308.31;4856762;29;20495;-80
2022/11/06 02:18:11;;;;;;;18.25;10.48;;;;;;;11.23;64.22;101317.84;4874263;29;20554;-80
2022/11/06 02:20:42;;;;;;;15.30;9.63;;;;;;;11.11;63.39;101297.56;4876635;29;21154;-79
2022/11/06 02:23:47;;;;;;;19.27;9.93;;;;;;;10.63;63.58;101218.16;4876417;29;20454;-78
2022/11/06 02:26:49;;;;;;;16.98;9.85;;;;;;;11.18;63.59;101303.25;4848245;29;20048;-78
2022/11/06 02:29:41;;;;;;;18.27;10.38;;;;;;;11.20;63.33;101293.34;4815418;29;20419;-78
2022/11/06 02:32:12;;;;;;;17.27;9.75;;;;;;;11.21;63.49;101287.06;4854636;29;20071;-79
2022/11/06 02:34:42;;;;;;;16.30;9.13;;;;;;;11.40;62.41;101299.69;4851325;29;20064;-79
2022/11/06 02:37:15;;;;;;;18.38;11.27;;;;;;;11.44;62.82;101307.31;4831018;29;20603;-79
2022/11/06 02:39:46;;;;;;;15.60;9.35;;;;;;;11.31;63.73;101301.28;4870864;29;20127;-78
2022/11/06 02:42:18;;;;;;;21.10;10.48;;;;;;;11.06;63.30;101260.75;4855099;29;20049;-78
2022/11/06 02:44:51;;;;;;;16.08;9.77;;;;;;;11.16;63.66;101300.72;4857344;29;20768;-79
2022/11/06 02:47:23;;;;;;;17.30;9.43;;;;;;;10.96;64.42;101266.94;4855614;29;20489;-80
2022/11/06 02:50:02;;;;;;;20.95;11.23;;;;;;;11.20;63.54;101307.47;4865827;29;20217;-79
2022/11/06 02:52:39;;;;;;;16.45;9.88;;;;;;;11.37;63.71;101313.25;4853169;29;20049;-79
2022/11/06 02:55:18;;;;;;;18.25;10.05;;;;;;;11.30;62.76;101292.47;4851969;29;20155;-79
2022/11/06 02:57:51;;;;;;;16.40;9.85;;;;;;;11.11;63.52;101271.00;4857223;29;20159;-79
2022/11/06 03:00:22;;;;;;;19.15;10.02;;;;;;;11.42;63.28;101327.00;4849550;29;20566;-79
2022/11/06 03:03:01;;;;;;;16.90;9.90;;;;;;;11.47;63.01;101330.97;4853187;29;20067;-79
2022/11/06 03:05:46;;;;;;;16.90;10.30;;;;;;;11.38;64.01;101329.06;4855197;29;20369;-80
2022/11/06 03:08:48;;;;;;;16.67;10.68;;;;;;;11.33;63.54;101334.78;4854984;29;20545;-79
2022/11/06 03:11:29;;;;;;;17.73;9.98;;;;;;;11.40;63.09;101344.91;4846765;29;20072;-79
2022/11/06 03:14:15;;;;;;;14.70;10.10;;;;;;;11.04;63.50;101291.91;4855605;29;20064;-80
2022/11/06 03:16:53;;;;;;;15.77;10.20;;;;;;;11.28;64.20;101339.59;4862273;29;20068;-79
2022/11/06 03:19:30;;;;;;;16.17;10.05;;;;;;;11.24;64.03;101345.31;4873257;29;20049;-76
2022/11/06 03:22:00;;;;;;;17.90;11.35;;;;;;;11.14;65.01;101350.50;4867265;29;20052;-79
2022/11/06 03:24:41;;;;;;;25.05;10.25;;;;;;;11.00;64.84;101342.78;4871753;29;20056;-77
2022/11/06 03:27:16;;;;;;;16.63;10.15;;;;;;;11.06;64.96;101348.44;4875322;29;20057;-78
2022/11/06 03:29:49;;;;;;;20.23;10.55;;;;;;;10.64;64.63;101284.44;4875701;29;20483;-76
2022/11/06 03:32:34;;;;;;;16.27;10.63;;;;;;;11.06;64.30;101342.28;4870646;29;20049;-77
2022/11/06 03:35:07;;;;;;;17.15;10.23;;;;;;;11.07;65.16;101363.41;4867218;29;20108;-77
2022/11/06 03:37:53;;;;;;;16.77;10.43;;;;;;;11.04;64.89;101357.50;4869350;29;20063;-79
2022/11/06 03:40:25;;;;;;;19.42;9.15;;;;;;;10.91;64.63;101331.88;4875070;29;20581;-79
2022/11/06 03:43:03;;;;;;;15.50;9.35;;;;;;;11.04;64.71;101352.19;4860022;29;20053;-78
2022/11/06 03:45:35;;;;;;;13.60;8.45;;;;;;;10.85;64.52;101329.72;4856423;29;20489;-79
2022/11/06 03:48:35;;;;;;;14.88;9.30;;;;;;;10.89;64.62;101346.25;4857491;29;20103;-79
2022/11/06 03:51:08;;;;;;;19.10;10.23;;;;;;;10.87;65.21;101351.72;4845635;29;20487;-80
2022/11/06 03:53:48;;;;;;;13.73;9.35;;;;;;;10.97;64.70;101353.63;4853852;29;20317;-79
2022/11/06 03:56:21;;;;;;;23.33;10.88;;;;;;;11.09;63.43;101363.28;4835912;29;20450;-80
2022/11/06 03:58:48;;;;;;;15.57;10.02;;;;;;;11.07;63.52;101336.84;4836957;29;20057;-79
2022/11/06 04:01:20;;;;;;;17.45;10.07;;;;;;;10.96;63.65;101330.69;4835454;29;20060;-80
2022/11/06 04:03:57;;;;;;;17.52;10.00;;;;;;;10.98;63.48;101342.88;4840744;29;20674;-79
2022/11/06 04:06:42;;;;;;;15.93;9.88;;;;;;;11.09;64.26;101364.16;4837498;29;20133;-80
2022/11/06 04:15:05;;;;;;;18.35;10.57;;;;;;;10.57;65.00;101304.47;4859165;29;20243;-80
2022/11/06 04:17:33;;;;;;;17.02;9.48;;;;;;;10.87;64.77;101364.13;4858046;29;20066;-80
2022/11/06 04:20:03;;;;;;;15.73;9.43;;;;;;;10.60;64.84;101320.16;4854967;29;20071;-78
2022/11/06 04:22:44;;;;;;;17.70;9.85;;;;;;;10.75;65.26;101365.91;4856846;29;20055;-79
2022/11/06 04:28:52;;;;;;;13.38;9.77;;;;;;;10.72;65.02;101365.31;4855760;29;20494;-80
2022/11/06 04:31:47;;;;;;;20.85;10.20;;;;;;;10.72;65.25;101368.81;4854559;29;20124;-79
2022/11/06 04:34:30;;;;;;;17.15;9.55;;;;;;;10.67;64.78;101360.38;4846930;29;20760;-79
2022/11/06 04:37:28;;;;;;;14.23;9.75;;;;;;;10.69;64.85;101361.09;4856296;29;20523;-78
2022/11/06 04:40:10;;;;;;;21.10;9.52;;;;;;;10.88;63.80;101357.88;4856573;29;20108;-81
2022/11/06 04:42:49;;;;;;;19.10;10.55;;;;;;;10.96;64.31;101374.03;4856714;29;20311;-78
2022/11/06 04:45:40;;;;;;;18.50;10.18;;;;;;;10.79;64.68;101351.44;4856313;29;20052;-79
2022/11/06 04:48:08;;;;;;;18.27;9.25;;;;;;;10.71;65.40;101348.56;4858552;29;20063;-79
2022/11/06 04:50:42;;;;;;;18.42;8.75;;;;;;;10.72;65.27;101367.97;4840967;29;20344;-79
2022/11/06 04:53:11;;;;;;;18.00;9.68;;;;;;;10.58;65.12;101371.69;4838831;29;20830;-80
2022/11/06 04:55:50;;;;;;;16.42;9.27;;;;;;;10.43;65.07;101350.66;4853893;29;20530;-80
2022/11/06 04:58:17;;;;;;;16.50;8.82;;;;;;;10.46;64.87;101360.19;4861281;29;20586;-79
2022/11/06 05:00:46;;;;;;;14.73;9.02;;;;;;;10.64;64.16;101389.81;4857687;29;20057;-79
2022/11/06 05:03:14;;;;;;;12.90;8.07;;;;;;;10.32;65.20;101348.00;4856091;29;20065;-78
2022/11/06 05:05:42;;;;;;;14.40;8.07;;;;;;;10.53;64.67;101382.66;4856771;29;20060;-79
2022/11/06 05:08:19;;;;;;;15.73;8.30;;;;;;;10.37;64.58;101364.41;4859823;29;20057;-78
2022/11/06 05:10:49;;;;;;;20.80;8.73;;;;;;;10.23;64.48;101344.19;4856338;29;20057;-80
2022/11/06 05:13:22;;;;;;;13.63;8.18;;;;;;;10.53;64.94;101385.31;4848108;29;20595;-80
2022/11/06 05:15:55;;;;;;;15.68;8.05;;;;;;;10.40;65.16;101374.78;4859277;29;20145;-81
2022/11/06 05:18:22;;;;;;;15.90;8.65;;;;;;;10.30;65.14;101360.53;4855787;29;20529;-81
2022/11/06 05:23:45;;;;;;;14.25;8.77;;;;;;;10.56;64.33;101398.38;4867591;29;20136;-81
2022/11/06 05:26:12;;;;;;;14.65;7.90;;;;;;;10.34;62.50;101356.69;4852548;29;20993;-80
2022/11/06 05:28:42;;;;;;;15.20;8.45;;;;;;;10.65;62.15;101402.13;4855680;29;21005;-81
2022/11/06 05:31:09;;;;;;;11.43;7.72;;;;;;;10.63;61.93;101388.09;4854389;29;20589;-80
2022/11/06 05:33:36;;;;;;;17.45;8.30;;;;;;;10.45;61.14;101346.09;4853598;29;20544;-80
2022/11/06 05:36:05;;;;;;;13.27;8.80;;;;;;;10.59;60.29;101360.97;4858730;29;20235;-82
2022/11/06 05:38:33;;;;;;;19.70;8.18;;;;;;;10.56;60.90;101345.28;4862213;29;20056;-82
2022/11/06 05:41:05;;;;;;;13.73;7.60;;;;;;;10.87;60.39;101402.19;4862118;29;20222;-81
2022/11/06 05:43:31;;;;;;;12.77;8.13;;;;;;;10.81;60.64;101402.63;4857776;29;20582;-78
2022/11/06 05:45:59;;;;;;;15.77;7.72;;;;;;;10.32;60.21;101326.75;4855591;29;20053;-81
2022/11/06 05:48:28;;;;;;;11.73;8.23;;;;;;;10.75;60.36;101363.25;4843723;29;20328;-80
2022/11/06 05:51:03;;;;;;;15.10;8.18;;;;;;;10.87;60.98;101391.56;4836487;29;20317;-80
2022/11/06 05:53:32;;;;;;;15.93;7.35;;;;;;;10.50;62.15;101351.03;4858179;29;20059;-80
2022/11/06 05:56:00;;;;;;;15.93;8.70;;;;;;;10.61;60.91;101371.47;4861089;29;20743;-80
2022/11/06 05:58:30;;;;;;;17.10;8.32;;;;;;;10.72;60.78;101367.97;4851907;29;20108;-81
2022/11/06 06:00:57;;;;;;;14.93;7.85;;;;;;;10.73;60.96;101389.13;4854886;29;20323;-81
2022/11/06 06:03:45;;;;;;;18.48;8.63;;;;;;;10.66;62.08;101398.53;4860843;29;20264;-81
2022/11/06 06:06:11;;;;;;;15.30;9.00;;;;;;;10.58;61.66;101384.97;4820034;29;20108;-80
2022/11/06 06:08:47;;;;;;;15.75;8.63;;;;;;;10.56;61.30;101400.16;4847617;29;20770;-80
2022/11/06 06:11:14;;;;;;;13.98;8.43;;;;;;;10.58;62.27;101417.69;4865157;29;20727;-82
2022/11/06 06:13:41;;;;;;;12.82;8.25;;;;;;;10.56;62.00;101411.66;4864038;29;20056;-80
2022/11/06 06:16:10;;;;;;;17.42;9.65;;;;;;;10.53;62.82;101418.97;4863975;29;20076;-81
2022/11/06 06:18:39;;;;;;;12.63;8.32;;;;;;;10.54;62.81;101426.00;4865814;29;20392;-81
2022/11/06 06:21:06;;;;;;;12.65;8.77;;;;;;;10.09;63.21;101359.47;4864821;29;20454;-82
2022/11/06 06:23:36;;;;;;;12.60;8.45;;;;;;;10.58;63.44;101432.75;4864048;29;20192;-80
2022/11/06 06:26:04;;;;;;;14.32;8.07;;;;;;;10.30;62.60;101389.72;4864419;29;20175;-82
2022/11/06 06:28:34;;;;;;;18.48;8.90;;;;;;;10.59;62.84;101437.13;4863177;29;20473;-80
2022/11/06 06:31:05;;;;;;;11.75;7.07;;;;;;;10.61;63.45;101444.00;4882399;29;20545;-78
2022/11/06 06:33:32;;;;;;;18.73;8.93;;;;;;;10.53;63.19;101418.97;4882652;29;20499;-77
2022/11/06 06:36:20;;;;;;;15.23;8.43;;;;;;;10.49;62.94;101418.38;4823590;29;20642;-78
2022/11/06 06:38:46;;;;;;;13.27;8.23;;;;;;;10.55;61.99;101438.31;4824304;29;20081;-82
2022/11/06 06:41:13;;;;;;;15.68;8.57;;;;;;;10.72;62.16;101461.78;4832871;29;20048;-80
2022/11/06 06:43:40;;;;;;;14.23;7.93;;;;;;;10.50;61.42;101429.84;4848384;29;20614;-80
2022/11/06 06:46:07;;;;;;;13.32;7.97;;;;;;;10.78;61.36;101466.63;4851623;29;20048;-79
2022/11/06 06:48:39;;;;;;;15.73;7.05;;;;;;;10.86;60.43;101474.84;4862582;29;20049;-80
2022/11/06 06:51:09;;;;;;;13.48;7.05;;;;;;;10.88;59.32;101464.97;4846250;29;20588;-80
2022/11/06 06:53:47;;;;;;;12.00;6.97;;;;;;;10.78;59.74;101426.78;4849829;29;20144;-82
2022/11/06 06:56:17;;;;;;;13.05;7.57;;;;;;;11.02;58.53;101447.09;4877651;29;20044;-80
2022/11/06 06:58:43;;;;;;;13.18;8.00;;;;;;;11.10;59.16;101458.00;4874582;29;20090;-81
2022/11/06 07:01:13;;;;;;;10.27;6.47;;;;;;;10.93;59.28;101411.47;4845575;29;20052;-80
2022/11/06 07:03:40;;;;;;;11.52;6.47;;;;;;;11.31;59.19;101485.56;4844660;29;20542;-80
2022/11/06 07:06:06;;;;;;;13.23;7.65;;;;;;;11.38;59.69;101480.59;4844312;29;20754;-80
2022/11/06 07:08:33;;;;;;;12.15;7.22;;;;;;;11.24;60.16;101457.78;4858249;29;20057;-79
2022/11/06 07:11:02;;;;;;;11.43;7.07;;;;;;;11.44;60.35;101489.91;4856310;29;20124;-78
2022/11/06 07:13:32;;;;;;;12.00;7.07;;;;;;;10.66;59.70;101358.69;4856479;29;20596;-79
2022/11/06 07:16:08;;;;;;;14.63;8.27;;;;;;;11.31;59.52;101453.66;4868223;29;20052;-80
2022/11/06 07:18:38;;;;;;;18.50;7.75;;;;;;;11.66;60.09;101489.91;4866679;29;20530;-80
2022/11/06 07:21:09;;;;;;;18.33;7.13;;;;;;;11.59;59.32;101472.75;4868020;29;20617;-79
2022/11/06 07:23:37;;;;;;;15.45;7.85;;;;;;;11.77;58.92;101497.91;4870473;29;20788;-80
2022/11/06 07:26:08;;;;;;;11.38;7.55;;;;;;;11.76;60.93;101501.50;4865605;29;20736;-79
2022/11/06 07:28:35;;;;;;;11.75;7.05;;;;;;;11.76;60.46;101501.50;4867055;29;20155;-81
2022/11/06 07:31:13;;;;;;;18.13;7.60;;;;;;;11.75;59.82;101488.34;4870837;29;20458;-80
2022/11/06 07:33:44;;;;;;;11.52;7.28;;;;;;;11.52;60.30;101439.63;4852324;29;20185;-80
2022/11/06 07:36:12;;;;;;;16.95;8.05;;;;;;;11.82;59.78;101483.34;4867473;29;20091;-80
2022/11/06 07:38:42;;;;;;;11.68;7.82;;;;;;;11.81;59.60;101471.03;4848685;29;20077;-79
2022/11/06 07:41:13;;;;;;;12.57;7.72;;;;;;;11.85;59.98;101477.81;4845762;29;20472;-80
2022/11/06 07:43:41;;;;;;;16.58;8.10;;;;;;;11.81;59.03;101481.69;4847742;29;20583;-80
2022/11/06 07:46:10;;;;;;;10.05;6.32;;;;;;;12.10;57.71;101508.63;4845798;29;20538;-81
2022/11/06 07:48:38;;;;;;;11.55;5.95;;;;;;;12.21;56.81;101505.97;4856948;29;20052;-81
2022/11/06 07:51:08;;;;;;;12.18;5.82;;;;;;;12.32;56.51;101510.41;4841809;29;20045;-80
2022/11/06 07:53:41;;;;;;;10.60;5.93;;;;;;;12.08;55.58;101455.53;4831736;29;20105;-81
2022/11/06 07:56:08;;;;;;;10.95;5.88;;;;;;;12.43;55.13;101494.38;4831534;29;20065;-80
2022/11/06 07:58:35;;;;;;;10.82;6.05;;;;;;;12.59;54.26;101505.44;4828476;29;20591;-79
2022/11/06 08:01:02;;;;;;;9.68;5.97;;;;;;;12.71;53.63;101513.41;4830014;29;20435;-80
2022/11/06 08:03:29;;;;;;;9.55;5.80;;;;;;;12.73;53.82;101514.13;4830527;29;20544;-80
2022/11/06 08:05:58;;;;;;;8.65;5.57;;;;;;;12.79;54.37;101524.25;4830193;29;20160;-80
2022/11/06 08:08:27;;;;;;;10.30;6.05;;;;;;;12.68;53.88;101489.69;4846669;29;20064;-82
2022/11/06 08:10:54;;;;;;;10.60;6.22;;;;;;;12.73;53.29;101500.78;4851238;29;20066;-80
2022/11/06 08:13:21;;;;;;;12.00;5.72;;;;;;;12.96;53.39;101523.69;4848435;29;20049;-80
2022/11/06 08:15:48;;;;;;;9.57;5.68;;;;;;;13.11;53.05;101528.72;4849810;29;20416;-80
2022/11/06 08:18:15;;;;;;;9.20;5.65;;;;;;;13.04;52.85;101507.88;4848642;29;20080;-81
2022/11/06 08:20:43;;;;;;;10.07;5.72;;;;;;;13.05;52.82;101501.56;4847501;29;20792;-81
2022/11/06 08:23:11;;;;;;;12.07;5.88;;;;;;;12.88;52.15;101456.03;4864423;29;20197;-81
2022/11/06 08:25:38;;;;;;;8.32;5.28;;;;;;;13.45;51.92;101540.88;4875109;29;20048;-80
2022/11/06 08:28:05;;;;;;;10.50;5.82;;;;;;;13.28;51.61;101482.81;4884172;29;20052;-78
2022/11/06 08:30:34;;;;;;;10.60;5.70;;;;;;;12.90;51.03;101420.25;4883623;29;20052;-80
2022/11/06 08:33:03;;;;;;;10.10;6.03;;;;;;;13.51;52.21;101522.63;4864171;29;20252;-79
2022/11/06 08:35:33;;;;;;;10.90;5.93;;;;;;;13.30;50.73;101475.53;4858032;29;20049;-81
2022/11/06 08:38:03;;;;;;;9.63;5.55;;;;;;;13.60;50.80;101513.84;4849950;29;20061;-80
2022/11/06 08:40:31;;;;;;;7.80;5.40;;;;;;;13.75;48.34;101500.97;4848876;29;20134;-80
2022/11/06 08:43:05;;;;;;;10.98;5.88;;;;;;;13.58;48.11;101449.94;4858361;29;20379;-80
2022/11/06 08:45:37;;;;;;;10.60;5.55;;;;;;;13.55;48.51;101452.03;4866857;29;20523;-80
2022/11/06 08:48:04;;;;;;;13.02;5.55;;;;;;;13.88;47.93;101502.44;4865899;29;20377;-81
2022/11/06 08:50:32;;;;;;;8.80;5.20;;;;;;;14.01;48.02;101517.38;4849021;29;20052;-81
2022/11/06 08:53:05;;;;;;;10.95;6.00;;;;;;;13.94;47.68;101494.88;4847903;29;20813;-80
2022/11/06 08:55:36;;;;;;;8.30;5.63;;;;;;;14.18;47.60;101526.53;4847955;29;20057;-80
2022/11/06 08:58:07;;;;;;;10.32;5.45;;;;;;;14.23;48.13;101517.13;4848999;29;20057;-80
2022/11/06 09:00:35;;;;;;;9.65;5.60;;;;;;;14.28;48.05;101522.88;4844916;29;20229;-81
2022/11/06 09:03:20;;;;;;;8.88;5.22;;;;;;;13.76;47.41;101447.47;4846128;29;20061;-77
2022/11/06 09:05:47;;;;;;;10.77;6.47;;;;;;;14.21;48.51;101484.38;4845337;29;20060;-81
2022/11/06 09:08:15;;;;;;;10.60;6.35;;;;;;;14.48;48.39;101520.25;4847770;29;20506;-80
2022/11/06 09:10:43;;;;;;;11.75;6.38;;;;;;;14.47;48.75;101506.03;4845281;29;20563;-81
2022/11/06 09:13:11;;;;;;;11.90;7.68;;;;;;;14.70;48.22;101511.97;4840044;29;20329;-80
2022/11/06 09:15:40;;;;;;;17.17;7.50;;;;;;;14.78;47.69;101518.44;4841721;29;20121;-80
2022/11/06 09:18:10;;;;;;;11.25;7.90;;;;;;;14.73;47.64;101495.69;4844768;29;20064;-81
2022/11/06 09:20:41;;;;;;;11.32;8.00;;;;;;;14.80;48.08;101495.09;4844782;29;20466;-81
2022/11/06 09:23:08;;;;;;;13.15;8.10;;;;;;;14.94;47.89;101505.34;4846719;29;20225;-81
2022/11/06 09:25:35;;;;;;;12.13;8.40;;;;;;;15.05;47.20;101488.28;4845849;29;20056;-81
2022/11/06 09:28:03;;;;;;;12.32;8.23;;;;;;;15.36;47.14;101519.22;4848311;29;20621;-81
2022/11/06 09:30:32;;;;;;;15.48;8.90;;;;;;;15.00;46.86;101445.97;4843224;29;20053;-81
2022/11/06 09:33:24;;;;;;;15.18;9.00;;;;;;;15.63;47.16;101524.72;4848298;29;20057;-80
2022/11/06 09:35:58;;;;;;;13.60;8.48;;;;;;;15.72;46.76;101523.88;4843834;29;20205;-80
2022/11/06 09:38:25;;;;;;;12.90;8.40;;;;;;;15.81;46.29;101512.28;4845091;29;20603;-81
2022/11/06 09:41:00;;;;;;;14.57;7.95;;;;;;;16.01;45.50;101508.50;4846889;29;20048;-81
2022/11/06 09:43:54;;;;;;;14.90;9.05;;;;;;;15.90;44.69;101473.06;4847087;29;20056;-81
2022/11/06 09:46:46;;;;;;;14.95;8.85;;;;;;;16.30;44.79;101496.75;4846588;29;20045;-81
2022/11/06 09:49:29;;;;;;;;;;;;;;;16.23;44.33;101515.28;4845697;29;20052;-79
2022/11/06 09:52:30;;;;;;;13.63;9.35;;;;;;;16.33;44.75;101495.63;4859699;29;20314;-82
2022/11/06 09:55:20;;;;;;;13.57;9.07;;;;;;;16.48;44.49;101498.59;4830676;29;20159;-81
2022/11/06 09:57:55;;;;;;;17.50;10.02;;;;;;;16.29;44.99;101451.34;4848154;29;20598;-81
2022/11/06 10:00:25;;;;;;;13.18;9.52;;;;;;;16.68;45.09;101513.53;4850819;29;20140;-80
2022/11/06 10:03:01;;;;;;;15.77;10.77;;;;;;;16.73;44.35;101503.19;4850760;29;20367;-82
2022/11/06 10:05:40;;;;;;;15.82;10.43;;;;;;;16.73;44.75;101487.13;4850045;29;20064;-80
2022/11/06 10:08:21;;;;;;;16.85;9.88;;;;;;;16.94;44.17;101504.72;4846749;29;20546;-82
2022/11/06 10:11:13;;;;;;;15.65;9.88;;;;;;;17.09;44.05;101503.19;4846366;29;20416;-80
2022/11/06 10:14:03;;;;;;;16.33;10.05;;;;;;;17.05;43.53;101483.03;4844866;29;20570;-80
2022/11/06 10:16:44;;;;;;;16.38;11.50;;;;;;;17.33;44.06;101496.25;4846452;29;20092;-81
2022/11/06 10:19:23;;;;;;;14.50;10.20;;;;;;;17.51;43.10;101489.00;4846169;29;20143;-80
2022/11/06 10:22:01;;;;;;;15.70;10.50;;;;;;;17.59;42.79;101491.72;4844530;29;20067;-81
2022/11/06 10:24:40;;;;;;;14.68;10.50;;;;;;;17.54;42.65;101477.94;4844319;29;20167;-80
2022/11/06 10:27:17;;;;;;;16.73;10.43;;;;;;;17.71;43.19;101487.72;4841997;29;20545;-82
2022/11/06 10:29:55;;;;;;;18.05;10.60;;;;;;;17.75;42.55;101461.41;4844165;29;20057;-81
2022/11/06 10:32:30;;;;;;;14.68;10.13;;;;;;;18.09;42.38;101488.22;4842496;29;20049;-82
2022/11/06 10:35:05;;;;;;;16.63;11.45;;;;;;;18.18;41.45;101464.91;4846631;29;20565;-81
2022/11/06 10:37:38;;;;;;;19.75;11.10;;;;;;;18.14;42.18;101439.38;4846745;29;20117;-83
2022/11/06 10:40:10;;;;;;;15.52;10.68;;;;;;;18.20;41.84;101438.69;4844860;29;20685;-83
2022/11/06 10:42:40;;;;;;;16.60;11.05;;;;;;;18.25;41.80;101440.88;4843981;29;20455;-82
2022/11/06 10:45:17;;;;;;;15.38;10.35;;;;;;;18.44;41.18;101456.69;4843412;29;20440;-80
2022/11/06 10:47:58;;;;;;;16.15;11.30;;;;;;;18.61;41.57;101451.31;4845905;29;20444;-82
2022/11/06 10:50:33;;;;;;;18.67;11.13;;;;;;;18.53;40.96;101428.81;4846308;29;20617;-81
2022/11/06 10:53:25;;;;;;;15.75;9.80;;;;;;;18.62;41.44;101445.78;4848384;29;20068;-81
2022/11/06 10:56:08;;;;;;;15.77;9.98;;;;;;;18.74;41.44;101446.28;4831572;29;20057;-79
2022/11/06 10:58:37;;;;;;;14.50;9.88;;;;;;;18.66;41.31;101446.28;4849540;29;20594;-82
2022/11/06 11:01:08;;;;;;;15.48;9.60;;;;;;;18.22;41.82;101403.59;4845006;29;20397;-80
2022/11/06 11:03:41;;;;;;;13.73;9.02;;;;;;;18.36;42.08;101440.56;4844420;29;20171;-83
2022/11/06 11:06:09;;;;;;;14.63;9.15;;;;;;;18.13;42.34;101417.03;4844741;29;20053;-83
2022/11/06 11:08:45;;;;;;;15.80;9.07;;;;;;;17.87;42.45;101390.31;4850296;29;20136;-81
2022/11/06 11:11:12;;;;;;;11.85;8.57;;;;;;;18.13;43.39;101438.53;4850722;29;20053;-81
2022/11/06 11:13:47;;;;;;;16.63;9.50;;;;;;;18.03;43.00;101431.63;4850423;29;20530;-83
2022/11/06 11:16:22;;;;;;;18.25;9.77;;;;;;;17.87;43.48;101435.13;4850695;29;20186;-80
2022/11/06 11:18:50;;;;;;;13.45;8.52;;;;;;;17.70;43.36;101426.16;4849211;29;20052;-83
2022/11/06 11:21:17;;;;;;;13.43;9.13;;;;;;;17.66;43.92;101435.53;4848581;29;20104;-81
2022/11/06 11:23:45;;;;;;;19.05;9.07;;;;;;;17.63;44.75;101431.31;4848688;29;20148;-82
2022/11/06 11:26:29;;;;;;;14.85;8.75;;;;;;;17.41;44.92;101408.59;4847149;29;20397;-82
2022/11/06 11:29:15;;;;;;;12.43;8.98;;;;;;;17.44;45.37;101423.53;4850078;29;20287;-81
2022/11/06 11:31:50;;;;;;;11.60;6.95;;;;;;;17.58;45.57;101440.88;4851206;29;20053;-82
2022/11/06 11:34:22;;;;;;;11.25;7.63;;;;;;;17.17;45.74;101390.53;4849065;29;20056;-82
2022/11/06 11:37:01;;;;;;;15.52;8.95;;;;;;;17.40;45.87;101435.56;4848833;29;20045;-82
2022/11/06 11:39:42;;;;;;;14.52;9.15;;;;;;;17.24;45.70;101410.34;4848948;29;20427;-82
2022/11/06 11:42:31;;;;;;;15.60;7.93;;;;;;;17.26;46.05;101419.09;4849078;29;20500;-81
2022/11/06 11:45:18;;;;;;;14.45;8.52;;;;;;;17.30;45.94;101425.81;4850669;29;20087;-81
2022/11/06 11:47:50;;;;;;;12.15;8.40;;;;;;;17.26;46.49;101421.78;4850598;29;20144;-82
2022/11/06 11:50:30;;;;;;;12.90;8.15;;;;;;;16.94;46.46;101367.94;4849118;29;20107;-82
2022/11/06 11:52:59;;;;;;;11.45;6.93;;;;;;;17.21;46.75;101416.06;4846486;29;20064;-82
2022/11/06 11:55:38;;;;;;;14.85;7.53;;;;;;;17.21;46.75;101405.31;4846855;29;20065;-81
2022/11/06 11:58:21;;;;;;;20.13;16.58;;;;;;;17.25;47.01;101405.81;4844451;29;20045;-81